Time;durP1;ratioP1;P1;durP2;ratioP2;P2;SDS_P1;SDS_P2;PMS_P1;PMS_P2;Temp;Humidity;BMP_temperature;BMP_pressure;BME280_temperature;BME280_humidity;BME280_pressure;Samples;Min_cycle;Max_cycle;Signal;HPM_P1;HPM_P2
2024/04/04 00:01:10;;;;;;;0.73;0.50;;;17.70;55.10;;;;;;6067407;23;20182;-81
2024/04/04 00:03:41;;;;;;;0.68;0.45;;;17.70;54.90;;;;;;6090976;23;20183;-82
2024/04/04 00:06:08;;;;;;;1.98;0.50;;;17.70;55.00;;;;;;6140583;23;20199;-81
2024/04/04 00:08:41;;;;;;;0.60;0.50;;;17.70;55.00;;;;;;6116020;23;20575;-81
2024/04/04 00:11:11;;;;;;;1.00;0.50;;;17.70;54.90;;;;;;6164630;23;20214;-81
2024/04/04 00:13:38;;;;;;;0.50;0.50;;;17.70;54.90;;;;;;6116110;23;20151;-81
2024/04/04 00:16:04;;;;;;;0.68;0.57;;;17.70;55.50;;;;;;6164881;23;20135;-81
2024/04/04 00:18:35;;;;;;;0.55;0.50;;;17.70;54.70;;;;;;6115121;23;20147;-80
2024/04/04 00:21:05;;;;;;;0.93;0.55;;;17.70;54.90;;;;;;6139734;23;20154;-81
2024/04/04 00:23:31;;;;;;;0.80;0.70;;;17.70;54.70;;;;;;6113875;23;20262;-80
2024/04/04 00:26:02;;;;;;;1.08;0.60;;;17.70;55.10;;;;;;6115294;23;20143;-81
2024/04/04 00:28:32;;;;;;;0.52;0.52;;;17.70;54.80;;;;;;6138725;23;20175;-80
2024/04/04 00:30:59;;;;;;;0.98;0.68;;;17.70;55.10;;;;;;6164074;23;20552;-80
2024/04/04 00:33:27;;;;;;;1.42;0.60;;;17.60;54.80;;;;;;6114989;23;20211;-81
2024/04/04 00:35:58;;;;;;;0.43;0.40;;;17.70;55.10;;;;;;6115725;23;20218;-81
2024/04/04 00:38:28;;;;;;;0.60;0.50;;;17.70;55.00;;;;;;6114421;23;20178;-81
2024/04/04 00:40:54;;;;;;;1.10;0.52;;;17.60;54.90;;;;;;6090272;23;20164;-81
2024/04/04 00:43:20;;;;;;;0.90;0.60;;;17.60;55.10;;;;;;6113946;23;20195;-81
2024/04/04 00:45:51;;;;;;;1.10;0.50;;;17.70;55.00;;;;;;6139479;23;20144;-81
2024/04/04 00:48:21;;;;;;;0.88;0.57;;;17.70;55.00;;;;;;6090986;23;20151;-81
2024/04/04 00:50:47;;;;;;;0.55;0.50;;;17.70;54.80;;;;;;6139404;23;20148;-81
2024/04/04 00:53:14;;;;;;;0.95;0.60;;;17.70;55.00;;;;;;6139903;23;20167;-81
2024/04/04 00:55:48;;;;;;;0.90;0.63;;;17.70;55.10;;;;;;6115096;23;20155;-81
2024/04/04 00:58:20;;;;;;;0.50;0.40;;;17.60;54.90;;;;;;6091572;23;20157;-81
2024/04/04 01:00:51;;;;;;;0.82;0.63;;;17.60;54.80;;;;;;6139146;23;20536;-81
2024/04/04 01:03:26;;;;;;;0.63;0.50;;;17.70;55.00;;;;;;6164949;23;20167;-82
2024/04/04 01:05:52;;;;;;;0.50;0.40;;;17.60;54.70;;;;;;6138876;23;20143;-82
2024/04/04 01:08:24;;;;;;;1.75;0.75;;;17.60;54.90;;;;;;6140731;23;20142;-81
2024/04/04 01:10:50;;;;;;;0.50;0.50;;;17.60;54.80;;;;;;6163572;23;20642;-82
2024/04/04 01:13:16;;;;;;;0.95;0.60;;;17.70;54.70;;;;;;6117127;23;20155;-81
2024/04/04 01:15:46;;;;;;;2.15;0.70;;;17.70;54.70;;;;;;6142124;23;20147;-81
2024/04/04 01:18:15;;;;;;;0.77;0.50;;;17.60;55.00;;;;;;6117718;23;20242;-81
2024/04/04 01:20:41;;;;;;;1.05;0.63;;;17.60;54.70;;;;;;6142145;23;20147;-81
2024/04/04 01:23:07;;;;;;;1.38;0.80;;;17.50;54.80;;;;;;6117231;23;20186;-81
2024/04/04 01:25:37;;;;;;;0.70;0.57;;;17.70;54.80;;;;;;6118410;23;20203;-81
2024/04/04 01:28:03;;;;;;;0.95;0.50;;;17.60;54.90;;;;;;6116078;23;20153;-81
2024/04/04 01:30:29;;;;;;;0.80;0.50;;;17.60;55.10;;;;;;6138870;23;20139;-81
2024/04/04 01:32:56;;;;;;;0.70;0.60;;;17.60;55.00;;;;;;6114317;23;20474;-81
2024/04/04 01:35:30;;;;;;;1.20;0.50;;;17.60;54.80;;;;;;6115456;23;20170;-81
2024/04/04 01:38:08;;;;;;;0.90;0.55;;;17.60;54.70;;;;;;6089605;23;20222;-81
2024/04/04 01:40:35;;;;;;;0.88;0.68;;;17.60;54.90;;;;;;6089340;23;20604;-80
2024/04/04 01:43:02;;;;;;;1.67;0.65;;;17.60;54.80;;;;;;6138840;23;20241;-81
2024/04/04 01:45:28;;;;;;;3.45;0.88;;;17.60;54.80;;;;;;6115802;23;20155;-81
2024/04/04 01:47:55;;;;;;;0.77;0.60;;;17.60;55.10;;;;;;6114322;23;20158;-81
2024/04/04 01:50:23;;;;;;;1.05;0.60;;;17.60;54.90;;;;;;6089898;23;20190;-81
2024/04/04 01:52:50;;;;;;;0.82;0.50;;;17.50;54.80;;;;;;6115329;23;20151;-81
2024/04/04 01:55:15;;;;;;;1.00;0.50;;;17.60;55.10;;;;;;6114582;23;20234;-81
2024/04/04 01:57:48;;;;;;;0.70;0.65;;;17.60;54.90;;;;;;6138910;23;20163;-81
2024/04/04 02:00:23;;;;;;;1.10;0.60;;;17.50;54.70;;;;;;6139535;23;20159;-81
2024/04/04 02:02:50;;;;;;;1.63;0.47;;;17.60;55.00;;;;;;6138796;23;20511;-81
2024/04/04 02:05:16;;;;;;;0.68;0.63;;;17.60;54.70;;;;;;6114942;23;20150;-81
2024/04/04 02:07:49;;;;;;;0.50;0.40;;;17.60;55.00;;;;;;6116461;23;20147;-80
2024/04/04 02:10:18;;;;;;;0.63;0.63;;;17.50;55.00;;;;;;6139649;23;20163;-81
2024/04/04 02:12:47;;;;;;;0.70;0.55;;;17.50;55.10;;;;;;6140348;23;20238;-81
2024/04/04 02:15:14;;;;;;;0.65;0.40;;;17.50;55.20;;;;;;6167252;23;20166;-80
2024/04/04 02:17:40;;;;;;;1.27;0.60;;;17.60;54.80;;;;;;6143241;23;20148;-81
2024/04/04 02:20:09;;;;;;;0.45;0.45;;;17.50;55.00;;;;;;6118253;23;20147;-81
2024/04/04 02:22:37;;;;;;;0.75;0.52;;;17.50;54.90;;;;;;6166826;23;20179;-81
2024/04/04 02:25:04;;;;;;;1.10;0.50;;;17.50;54.90;;;;;;6142723;23;20131;-81
2024/04/04 02:27:33;;;;;;;0.57;0.38;;;17.60;55.10;;;;;;6118235;23;20482;-81
2024/04/04 02:30:00;;;;;;;0.70;0.60;;;17.50;55.10;;;;;;6114792;23;20160;-81
2024/04/04 02:32:28;;;;;;;0.52;0.47;;;17.50;54.90;;;;;;6084155;23;20160;-80
2024/04/04 02:34:56;;;;;;;0.70;0.70;;;17.50;54.90;;;;;;6107807;23;20242;-81
2024/04/04 02:37:25;;;;;;;0.52;0.52;;;17.50;55.00;;;;;;6107901;23;20163;-81
2024/04/04 02:39:53;;;;;;;0.40;0.40;;;17.50;54.90;;;;;;6108461;23;20156;-81
2024/04/04 02:42:20;;;;;;;1.17;0.60;;;17.60;54.90;;;;;;6106206;23;20215;-81
2024/04/04 02:44:47;;;;;;;1.85;0.40;;;17.50;54.90;;;;;;6084496;23;20631;-81
2024/04/04 02:47:15;;;;;;;0.82;0.50;;;17.50;55.00;;;;;;6084121;23;20627;-81
2024/04/04 02:49:41;;;;;;;0.77;0.50;;;17.50;54.80;;;;;;6085145;23;20255;-81
2024/04/04 02:52:13;;;;;;;1.40;0.60;;;17.50;55.00;;;;;;6108392;23;20195;-81
2024/04/04 02:54:40;;;;;;;0.40;0.40;;;17.50;55.10;;;;;;6107494;23;20152;-81
2024/04/04 02:57:08;;;;;;;1.90;0.80;;;17.50;54.80;;;;;;6084068;23;20198;-81
2024/04/04 02:59:38;;;;;;;0.57;0.50;;;17.60;54.90;;;;;;6083596;23;20231;-82
2024/04/04 03:02:05;;;;;;;0.55;0.50;;;17.50;54.60;;;;;;6132047;23;20144;-81
2024/04/04 03:04:36;;;;;;;0.65;0.50;;;17.50;54.90;;;;;;6107769;23;20152;-82
2024/04/04 03:07:06;;;;;;;0.40;0.40;;;17.50;55.10;;;;;;6108367;23;20155;-81
2024/04/04 03:09:32;;;;;;;0.88;0.57;;;17.50;54.90;;;;;;6125820;23;20155;-81
2024/04/04 03:12:02;;;;;;;2.10;0.60;;;17.50;54.80;;;;;;6114150;23;20144;-82
2024/04/04 03:14:31;;;;;;;0.50;0.50;;;17.50;54.80;;;;;;6089159;23;20171;-82
2024/04/04 03:16:57;;;;;;;0.93;0.52;;;17.50;55.10;;;;;;6163380;23;20169;-81
2024/04/04 03:19:26;;;;;;;1.35;0.52;;;17.50;55.00;;;;;;6113009;23;20183;-81
2024/04/04 03:21:53;;;;;;;1.38;0.50;;;17.50;55.00;;;;;;6138448;23;20639;-80
2024/04/04 03:24:23;;;;;;;0.73;0.68;;;17.50;54.90;;;;;;6114193;23;20164;-82
2024/04/04 03:26:53;;;;;;;0.60;0.50;;;17.50;55.10;;;;;;6089550;23;20600;-81
2024/04/04 03:29:20;;;;;;;0.75;0.65;;;17.50;55.00;;;;;;6138231;23;20167;-81
2024/04/04 03:31:51;;;;;;;0.60;0.50;;;17.40;55.00;;;;;;6162405;23;20247;-81
2024/04/04 03:34:16;;;;;;;0.43;0.43;;;17.40;55.00;;;;;;6092743;23;20171;-81
2024/04/04 03:36:50;;;;;;;0.63;0.50;;;17.50;54.80;;;;;;6121613;23;20151;-81
2024/04/04 03:39:17;;;;;;;1.08;0.60;;;17.50;55.00;;;;;;6146826;23;20148;-81
2024/04/04 03:41:47;;;;;;;0.60;0.60;;;17.50;54.80;;;;;;6171355;23;20137;-81
2024/04/04 03:44:15;;;;;;;0.50;0.50;;;17.50;54.80;;;;;;6097024;23;20274;-81
2024/04/04 03:46:46;;;;;;;0.73;0.60;;;17.50;54.90;;;;;;6122883;23;20150;-81
2024/04/04 03:49:13;;;;;;;0.82;0.50;;;17.50;55.00;;;;;;6097012;23;20604;-80
2024/04/04 03:51:48;;;;;;;0.85;0.68;;;17.50;54.60;;;;;;6122727;23;20162;-81
2024/04/04 03:54:14;;;;;;;0.50;0.50;;;17.50;54.70;;;;;;6098591;23;20522;-81
2024/04/04 03:56:42;;;;;;;0.50;0.50;;;17.50;55.30;;;;;;6119239;23;20147;-81
2024/04/04 03:59:11;;;;;;;0.60;0.60;;;17.40;54.80;;;;;;6141905;23;20196;-81
2024/04/04 04:01:38;;;;;;;0.77;0.60;;;17.50;55.00;;;;;;6119578;23;20155;-81
2024/04/04 04:04:07;;;;;;;0.85;0.70;;;17.40;54.60;;;;;;6143388;23;20175;-81
2024/04/04 04:06:33;;;;;;;0.60;0.50;;;17.40;54.90;;;;;;6094116;23;20156;-81
2024/04/04 04:09:02;;;;;;;0.80;0.57;;;17.40;54.80;;;;;;6168368;23;20466;-81
2024/04/04 04:11:28;;;;;;;0.52;0.52;;;17.50;54.90;;;;;;6120161;23;20226;-81
2024/04/04 04:13:59;;;;;;;0.80;0.50;;;17.40;54.70;;;;;;6119010;23;20179;-81
2024/04/04 04:16:26;;;;;;;0.90;0.60;;;17.50;55.20;;;;;;6094063;23;20211;-81
2024/04/04 04:18:52;;;;;;;1.73;0.70;;;17.40;54.90;;;;;;6143871;23;20136;-81
2024/04/04 04:21:21;;;;;;;0.73;0.50;;;17.40;54.60;;;;;;6144234;23;20560;-81
2024/04/04 04:23:50;;;;;;;1.58;0.70;;;17.40;55.00;;;;;;6120399;23;20178;-81
2024/04/04 04:26:16;;;;;;;1.20;0.77;;;17.40;54.80;;;;;;6093968;23;20173;-81
2024/04/04 04:28:43;;;;;;;1.10;0.70;;;17.40;54.90;;;;;;6118562;23;20230;-81
2024/04/04 04:31:26;;;;;;;0.60;0.60;;;17.40;55.00;;;;;;6139162;23;20135;-81
2024/04/04 04:34:02;;;;;;;0.57;0.57;;;17.40;55.00;;;;;;6139495;23;20148;-82
2024/04/04 04:36:32;;;;;;;0.73;0.30;;;17.40;54.80;;;;;;6090673;23;20186;-81
2024/04/04 04:39:02;;;;;;;0.60;0.60;;;17.40;55.00;;;;;;6114750;23;20607;-81
2024/04/04 04:41:33;;;;;;;0.70;0.60;;;17.40;55.00;;;;;;6164278;23;20147;-81
2024/04/04 04:44:03;;;;;;;0.82;0.63;;;17.40;54.90;;;;;;6139587;23;20195;-81
2024/04/04 04:46:32;;;;;;;0.45;0.45;;;17.40;54.80;;;;;;6090782;23;20256;-81
2024/04/04 04:49:01;;;;;;;0.70;0.50;;;17.40;54.90;;;;;;6164616;23;20132;-82
2024/04/04 04:51:28;;;;;;;0.60;0.50;;;17.40;54.70;;;;;;6139787;23;20151;-81
2024/04/04 04:53:57;;;;;;;1.25;0.50;;;17.40;54.80;;;;;;6114366;23;20175;-81
2024/04/04 04:56:25;;;;;;;0.50;0.40;;;17.40;54.90;;;;;;6090330;23;20183;-81
2024/04/04 04:58:52;;;;;;;1.55;0.60;;;17.40;55.00;;;;;;6164470;23;20136;-81
2024/04/04 05:01:18;;;;;;;0.80;0.70;;;17.40;54.80;;;;;;6140690;23;20147;-82
2024/04/04 05:03:43;;;;;;;0.70;0.60;;;17.40;54.90;;;;;;6117736;23;20638;-81
2024/04/04 05:06:10;;;;;;;1.33;0.63;;;17.50;55.00;;;;;;6138434;23;20171;-81
2024/04/04 05:08:37;;;;;;;1.55;0.70;;;17.40;54.80;;;;;;6115565;23;20243;-81
2024/04/04 05:11:03;;;;;;;0.90;0.60;;;17.40;54.60;;;;;;6116604;23;20534;-82
2024/04/04 05:13:29;;;;;;;1.35;0.60;;;17.40;54.90;;;;;;6138314;23;20155;-81
2024/04/04 05:15:55;;;;;;;0.80;0.60;;;17.40;54.60;;;;;;6136134;23;20188;-81
2024/04/04 05:18:22;;;;;;;0.70;0.50;;;17.40;54.60;;;;;;6163215;23;20132;-83
2024/04/04 05:20:58;;;;;;;0.70;0.70;;;17.40;54.70;;;;;;6112761;23;20158;-83
2024/04/04 05:23:24;;;;;;;0.77;0.60;;;17.40;54.60;;;;;;6138569;23;20179;-82
2024/04/04 05:25:54;;;;;;;0.75;0.43;;;17.40;54.80;;;;;;6165354;23;20128;-81
2024/04/04 05:28:26;;;;;;;0.70;0.70;;;17.50;54.50;;;;;;6145375;23;20171;-80
2024/04/04 05:30:53;;;;;;;1.17;0.60;;;17.50;54.60;;;;;;6122588;23;20167;-81
2024/04/04 05:33:19;;;;;;;0.40;0.30;;;17.50;54.40;;;;;;6121100;23;20230;-80
2024/04/04 05:35:46;;;;;;;1.02;0.73;;;17.40;54.30;;;;;;6114967;23;20155;-81
2024/04/04 05:38:15;;;;;;;0.70;0.60;;;17.50;54.40;;;;;;6117234;23;20155;-81
2024/04/04 05:41:16;;;;;;;0.95;0.60;;;17.50;54.40;;;;;;6122009;23;20611;-81
2024/04/04 05:43:43;;;;;;;0.70;0.60;;;17.60;54.10;;;;;;6091720;23;20204;-82
2024/04/04 05:46:18;;;;;;;1.58;0.50;;;17.70;53.80;;;;;;6041854;23;20159;-81
2024/04/04 05:48:50;;;;;;;0.52;0.50;;;17.70;53.80;;;;;;6043571;23;20181;-82
2024/04/04 05:51:30;;;;;;;1.60;0.65;;;17.80;53.60;;;;;;6089723;23;20168;-82
2024/04/04 05:53:56;;;;;;;2.38;0.73;;;17.80;53.60;;;;;;6066759;23;20168;-82
2024/04/04 05:56:28;;;;;;;0.98;0.68;;;17.80;53.50;;;;;;6044484;23;20311;-82
2024/04/04 05:58:53;;;;;;;0.73;0.70;;;17.80;53.60;;;;;;6043817;23;20157;-81
2024/04/04 06:01:19;;;;;;;1.33;0.50;;;17.80;53.60;;;;;;6044101;23;20212;-81
2024/04/04 06:03:50;;;;;;;0.70;0.60;;;17.90;53.60;;;;;;6067404;23;20176;-81
2024/04/04 06:06:17;;;;;;;1.33;0.63;;;17.80;53.60;;;;;;6068177;23;20144;-82
2024/04/04 06:08:47;;;;;;;0.65;0.50;;;17.80;53.20;;;;;;6064868;23;20159;-82
2024/04/04 06:11:16;;;;;;;0.70;0.60;;;17.90;53.00;;;;;;6097316;23;20176;-80
2024/04/04 06:13:46;;;;;;;0.80;0.50;;;17.90;53.10;;;;;;6036129;23;20161;-80
2024/04/04 06:16:34;;;;;;;1.48;0.70;;;17.90;52.80;;;;;;6009779;23;20186;-80
2024/04/04 06:19:03;;;;;;;0.50;0.50;;;17.80;53.10;;;;;;6034704;23;20187;-81
2024/04/04 06:21:35;;;;;;;2.00;0.60;;;17.90;52.90;;;;;;5977875;24;20159;-80
2024/04/04 06:24:01;;;;;;;0.60;0.60;;;17.90;52.70;;;;;;5954953;24;20249;-80
2024/04/04 06:26:29;;;;;;;1.00;0.47;;;17.90;52.30;;;;;;5953588;24;20159;-81
2024/04/04 06:28:56;;;;;;;0.57;0.50;;;17.80;52.80;;;;;;5954145;24;20148;-81
2024/04/04 06:31:22;;;;;;;0.50;0.50;;;17.90;52.50;;;;;;5954481;24;20262;-81
2024/04/04 06:33:51;;;;;;;0.80;0.70;;;17.90;52.40;;;;;;5931616;24;20162;-82
2024/04/04 06:36:20;;;;;;;0.77;0.60;;;17.80;52.40;;;;;;5956603;24;20192;-81
2024/04/04 06:38:47;;;;;;;0.65;0.50;;;17.90;52.70;;;;;;5977386;24;20166;-81
2024/04/04 06:41:17;;;;;;;0.52;0.52;;;17.90;52.80;;;;;;5977165;24;20250;-81
2024/04/04 06:43:45;;;;;;;0.52;0.52;;;17.70;52.60;;;;;;5977146;24;20181;-81
2024/04/04 06:46:10;;;;;;;1.88;0.60;;;17.70;53.00;;;;;;5954720;24;20163;-82
2024/04/04 06:48:40;;;;;;;0.50;0.50;;;17.80;53.00;;;;;;5952939;24;20159;-82
2024/04/04 06:51:12;;;;;;;1.10;0.65;;;17.70;52.60;;;;;;5953514;24;20160;-81
2024/04/04 06:53:43;;;;;;;0.63;0.57;;;17.70;52.70;;;;;;5907236;24;20175;-82
2024/04/04 06:56:24;;;;;;;0.47;0.47;;;17.80;52.30;;;;;;5953952;24;20203;-82
2024/04/04 06:58:59;;;;;;;1.45;0.55;;;17.70;53.20;;;;;;5993825;23;20156;-82
2024/04/04 07:01:34;;;;;;;0.50;0.50;;;17.90;51.90;;;;;;6045563;23;20167;-80
2024/04/04 07:04:03;;;;;;;1.85;0.70;;;17.80;52.50;;;;;;6068249;23;20183;-81
2024/04/04 07:06:35;;;;;;;0.80;0.55;;;17.80;52.40;;;;;;6050167;23;20153;-80
2024/04/04 07:09:06;;;;;;;0.50;0.50;;;17.80;52.00;;;;;;6015947;23;20688;-81
2024/04/04 07:12:02;;;;;;;0.77;0.50;;;17.80;52.40;;;;;;6063385;23;20224;-81
2024/04/04 07:14:41;;;;;;;1.05;0.57;;;17.80;52.30;;;;;;6031433;23;20159;-82
2024/04/04 07:17:24;;;;;;;1.00;0.50;;;17.80;52.50;;;;;;5982624;23;20154;-81
2024/04/04 07:20:03;;;;;;;0.57;0.50;;;17.80;52.60;;;;;;6001351;24;20171;-80
2024/04/04 07:22:35;;;;;;;1.02;0.60;;;17.80;52.30;;;;;;5908611;24;20212;-81
2024/04/04 07:28:37;;;;;;;0.60;0.52;;;17.80;52.40;;;;;;5851638;24;20940;-81
2024/04/04 07:31:08;;;;;;;0.40;0.40;;;17.80;52.50;;;;;;5869405;24;20187;-81
2024/04/04 07:33:35;;;;;;;0.52;0.52;;;17.80;51.90;;;;;;5872932;24;20187;-80
2024/04/04 07:36:08;;;;;;;0.80;0.50;;;17.90;52.20;;;;;;5828115;24;20158;-80
2024/04/04 07:38:41;;;;;;;0.60;0.50;;;17.90;52.10;;;;;;5901203;24;20220;-81
2024/04/04 07:41:19;;;;;;;0.43;0.43;;;17.90;52.10;;;;;;5904082;24;20256;-81
2024/04/04 07:43:47;;;;;;;0.60;0.50;;;17.90;52.40;;;;;;5948971;24;20204;-81
2024/04/04 07:46:16;;;;;;;0.30;0.30;;;17.80;52.50;;;;;;5949294;24;20203;-81
2024/04/04 07:48:47;;;;;;;0.68;0.50;;;17.80;52.70;;;;;;5977050;24;20156;-81
2024/04/04 07:51:18;;;;;;;4.28;0.60;;;17.80;53.10;;;;;;5907491;24;20160;-81
2024/04/04 07:53:47;;;;;;;0.88;0.50;;;17.70;52.60;;;;;;5951298;24;20180;-81
2024/04/04 07:56:18;;;;;;;0.60;0.60;;;17.70;53.00;;;;;;5954173;24;20171;-81
2024/04/04 07:58:47;;;;;;;0.57;0.50;;;17.70;53.00;;;;;;5972038;24;20191;-81
2024/04/04 08:01:20;;;;;;;0.80;0.50;;;17.70;52.70;;;;;;5930374;24;20196;-81
2024/04/04 08:03:48;;;;;;;0.63;0.40;;;17.80;53.00;;;;;;5977251;24;20262;-81
2024/04/04 08:06:18;;;;;;;0.93;0.32;;;17.70;52.60;;;;;;6039654;23;20162;-81
2024/04/04 08:08:45;;;;;;;0.60;0.50;;;17.80;52.70;;;;;;6013309;23;20161;-80
2024/04/04 08:11:12;;;;;;;0.50;0.50;;;17.80;51.90;;;;;;6036421;23;20149;-81
2024/04/04 08:13:39;;;;;;;0.88;0.60;;;17.80;52.80;;;;;;6036527;23;20153;-81
2024/04/04 08:16:05;;;;;;;0.45;0.40;;;17.80;52.80;;;;;;6061515;23;20149;-81
2024/04/04 08:18:32;;;;;;;0.40;0.40;;;17.80;51.90;;;;;;6036826;23;20181;-81
2024/04/04 08:20:58;;;;;;;0.63;0.50;;;17.80;52.10;;;;;;6060796;23;20209;-80
2024/04/04 08:23:28;;;;;;;0.35;0.35;;;17.80;52.30;;;;;;6037501;23;20192;-81
2024/04/04 08:26:06;;;;;;;0.90;0.38;;;17.80;52.10;;;;;;6043345;23;20145;-81
2024/04/04 08:28:44;;;;;;;0.85;0.80;;;17.80;51.70;;;;;;5974921;24;20189;-81
2024/04/04 08:31:13;;;;;;;1.83;0.60;;;17.90;51.60;;;;;;5952012;24;20156;-81
2024/04/04 08:33:53;;;;;;;0.88;0.60;;;17.90;52.90;;;;;;5975188;24;20152;-81
2024/04/04 08:36:19;;;;;;;0.85;0.50;;;17.90;53.00;;;;;;5974222;24;20163;-81
2024/04/04 08:38:45;;;;;;;1.27;0.43;;;17.90;52.20;;;;;;5996431;24;20156;-81
2024/04/04 08:41:12;;;;;;;0.45;0.45;;;17.90;52.50;;;;;;5995857;24;20164;-82
2024/04/04 08:43:41;;;;;;;1.38;0.50;;;17.90;52.10;;;;;;6011107;23;20249;-81
2024/04/04 08:47:00;;;;;;;0.40;0.40;;;17.90;52.40;;;;;;6000410;24;20170;-82
2024/04/04 08:49:29;;;;;;;0.68;0.50;;;18.00;52.70;;;;;;5977928;24;20154;-82
2024/04/04 08:51:56;;;;;;;0.50;0.45;;;17.90;52.40;;;;;;6019774;23;20159;-82
2024/04/04 08:54:26;;;;;;;0.60;0.50;;;18.00;51.50;;;;;;6061205;23;20158;-82
2024/04/04 08:56:53;;;;;;;0.57;0.50;;;18.00;51.70;;;;;;6006833;23;20174;-81
2024/04/04 08:59:21;;;;;;;1.75;0.40;;;18.00;52.30;;;;;;6023194;23;20157;-82
2024/04/04 09:01:50;;;;;;;0.90;0.50;;;18.10;52.30;;;;;;6033301;23;20158;-81
2024/04/04 09:04:32;;;;;;;0.50;0.43;;;18.10;52.20;;;;;;5977046;24;20202;-82
2024/04/04 09:07:02;;;;;;;0.82;0.50;;;18.10;51.70;;;;;;5977622;24;20163;-81
2024/04/04 09:09:33;;;;;;;2.28;0.60;;;18.20;51.50;;;;;;5945857;24;20182;-83
2024/04/04 09:12:09;;;;;;;1.25;0.55;;;18.10;51.70;;;;;;5879659;24;20184;-81
2024/04/04 09:14:35;;;;;;;1.05;0.52;;;18.10;51.90;;;;;;5879362;24;20175;-82
2024/04/04 09:17:03;;;;;;;0.50;0.40;;;18.00;51.70;;;;;;5876519;24;20184;-82
2024/04/04 09:19:29;;;;;;;1.83;0.70;;;18.00;52.20;;;;;;5890053;24;20165;-83
2024/04/04 09:22:01;;;;;;;0.40;0.40;;;18.10;51.90;;;;;;5867784;24;20150;-81
2024/04/04 09:24:28;;;;;;;0.73;0.40;;;18.00;52.40;;;;;;5891443;24;20197;-81
2024/04/04 09:26:54;;;;;;;0.35;0.35;;;18.00;52.20;;;;;;5891409;24;20162;-82
2024/04/04 09:29:21;;;;;;;0.75;0.50;;;17.90;52.30;;;;;;5870244;24;20160;-81
2024/04/04 09:31:47;;;;;;;2.60;0.55;;;17.90;52.50;;;;;;5892703;24;20172;-80
2024/04/04 09:34:20;;;;;;;2.67;0.75;;;17.90;52.40;;;;;;5947976;24;20177;-81
2024/04/04 09:36:49;;;;;;;1.63;0.50;;;17.90;52.70;;;;;;5997792;24;20163;-81
2024/04/04 09:39:28;;;;;;;1.33;0.47;;;17.90;52.30;;;;;;5975280;23;20159;-81
2024/04/04 09:41:55;;;;;;;0.73;0.43;;;17.90;52.70;;;;;;5935564;23;20221;-81
2024/04/04 09:44:21;;;;;;;0.93;0.50;;;18.00;51.80;;;;;;6004855;23;20213;-81
2024/04/04 09:46:55;;;;;;;1.02;0.63;;;18.00;52.60;;;;;;6005766;23;20150;-81
2024/04/04 09:49:23;;;;;;;4.97;0.80;;;18.00;52.50;;;;;;6008213;23;20179;-81
2024/04/04 09:51:52;;;;;;;1.25;0.70;;;18.00;52.30;;;;;;6058258;23;20153;-81
2024/04/04 09:54:28;;;;;;;7.15;1.10;;;18.00;52.00;;;;;;6057857;23;20149;-81
2024/04/04 09:56:54;;;;;;;8.70;1.05;;;17.90;52.50;;;;;;6060690;23;20175;-80
2024/04/04 09:59:26;;;;;;;12.63;1.55;;;17.90;52.60;;;;;;6057698;23;20168;-81
2024/04/04 10:01:52;;;;;;;16.30;1.77;;;18.00;52.60;;;;;;6058519;23;20148;-80
2024/04/04 10:04:19;;;;;;;8.70;1.08;;;18.00;52.70;;;;;;6057642;23;20260;-82
2024/04/04 10:06:56;;;;;;;12.45;1.20;;;18.00;51.70;;;;;;6054360;23;20134;-82
2024/04/04 10:09:25;;;;;;;13.90;1.52;;;18.10;52.20;;;;;;6057139;23;20153;-80
2024/04/04 10:11:51;;;;;;;19.05;1.92;;;18.00;52.40;;;;;;6057256;23;20160;-81
2024/04/04 10:14:20;;;;;;;15.02;1.20;;;18.00;53.00;;;;;;6034251;23;20149;-81
2024/04/04 10:16:53;;;;;;;10.90;1.15;;;18.00;52.50;;;;;;6074316;23;20603;-81
2024/04/04 10:19:21;;;;;;;7.90;0.90;;;18.00;52.30;;;;;;6094059;23;20156;-80
2024/04/04 10:21:47;;;;;;;7.93;0.98;;;18.00;52.70;;;;;;6118188;23;20167;-81
2024/04/04 10:24:26;;;;;;;5.10;1.05;;;18.00;52.20;;;;;;6092735;23;20179;-81
2024/04/04 10:26:54;;;;;;;10.73;1.10;;;18.00;52.20;;;;;;6113568;23;20135;-82
2024/04/04 10:29:21;;;;;;;8.32;1.10;;;17.90;52.90;;;;;;6114272;23;20148;-82
2024/04/04 10:31:51;;;;;;;6.80;0.73;;;17.90;53.10;;;;;;6096161;23;20140;-82
2024/04/04 10:34:18;;;;;;;7.38;1.00;;;17.90;52.70;;;;;;6096103;23;20166;-81
2024/04/04 10:36:48;;;;;;;9.23;1.08;;;17.90;52.40;;;;;;6123285;23;20151;-81
2024/04/04 10:39:21;;;;;;;6.80;0.90;;;17.90;53.00;;;;;;6074640;23;20167;-81
2024/04/04 10:41:56;;;;;;;6.10;0.85;;;17.90;52.00;;;;;;6122761;23;20148;-79
2024/04/04 10:44:23;;;;;;;5.85;0.82;;;17.90;52.60;;;;;;6126477;23;20190;-81
2024/04/04 10:46:54;;;;;;;8.82;0.80;;;17.90;51.80;;;;;;6125600;23;20147;-81
2024/04/04 10:49:24;;;;;;;7.22;0.90;;;18.00;52.30;;;;;;6128515;23;20130;-81
2024/04/04 10:51:57;;;;;;;6.28;1.00;;;18.00;51.90;;;;;;6130674;23;20138;-81
2024/04/04 10:54:27;;;;;;;5.65;0.90;;;17.90;52.40;;;;;;6147474;23;20143;-80
2024/04/04 10:56:58;;;;;;;3.42;0.80;;;18.00;52.50;;;;;;6175575;23;20155;-81
2024/04/04 10:59:26;;;;;;;4.10;0.75;;;18.00;51.90;;;;;;6099785;23;20761;-81
2024/04/04 11:01:56;;;;;;;7.32;0.90;;;17.90;51.90;;;;;;6124357;23;20234;-81
2024/04/04 11:04:22;;;;;;;9.00;1.10;;;18.00;52.10;;;;;;6126658;23;20532;-81
2024/04/04 11:06:50;;;;;;;5.85;0.80;;;18.00;52.80;;;;;;6089109;23;20156;-80
2024/04/04 11:09:20;;;;;;;4.88;0.68;;;17.90;52.70;;;;;;6066274;23;20180;-81
2024/04/04 11:11:49;;;;;;;3.78;0.70;;;18.00;52.80;;;;;;6088070;23;20156;-81
2024/04/04 11:14:18;;;;;;;5.18;0.70;;;18.00;52.80;;;;;;6067408;23;20216;-82
2024/04/04 11:16:49;;;;;;;3.70;0.60;;;17.90;52.70;;;;;;6069805;23;20160;-82
2024/04/04 11:19:20;;;;;;;5.65;0.88;;;17.90;52.80;;;;;;6092104;23;20151;-82
2024/04/04 11:21:53;;;;;;;6.38;1.00;;;17.90;52.90;;;;;;6067040;23;20188;-82
2024/04/04 11:24:28;;;;;;;4.68;0.75;;;17.90;52.90;;;;;;6066209;23;20184;-82
2024/04/04 11:26:59;;;;;;;4.05;0.77;;;18.00;52.30;;;;;;6068412;23;20161;-82
2024/04/04 11:29:31;;;;;;;3.90;0.93;;;18.00;52.30;;;;;;6068804;23;20141;-82
2024/04/04 11:31:59;;;;;;;3.60;0.68;;;18.00;52.10;;;;;;6066656;23;20176;-81
2024/04/04 11:34:27;;;;;;;4.15;0.60;;;18.00;52.40;;;;;;6066570;23;20239;-82
2024/04/04 11:36:56;;;;;;;6.60;1.00;;;18.00;52.00;;;;;;6075386;23;20155;-82
2024/04/04 11:39:37;;;;;;;5.63;0.77;;;18.00;52.00;;;;;;6097079;23;20240;-81
2024/04/04 11:42:03;;;;;;;5.68;0.98;;;18.00;52.20;;;;;;6095562;23;20204;-81
2024/04/04 11:44:31;;;;;;;4.88;1.30;;;18.00;51.70;;;;;;6072450;23;20191;-82
2024/04/04 11:46:57;;;;;;;5.88;0.82;;;18.10;52.90;;;;;;6097045;23;20136;-81
2024/04/04 11:49:30;;;;;;;7.00;1.08;;;18.00;52.00;;;;;;6071094;23;20503;-81
2024/04/04 11:51:56;;;;;;;5.00;1.10;;;18.10;52.60;;;;;;6118889;23;20156;-82
2024/04/04 11:54:23;;;;;;;5.35;1.00;;;18.10;52.40;;;;;;6119883;23;20152;-82
2024/04/04 11:56:51;;;;;;;4.53;0.82;;;18.10;52.40;;;;;;6073654;23;20168;-82
2024/04/04 11:59:20;;;;;;;5.32;0.95;;;18.10;52.20;;;;;;6096355;23;20140;-82
2024/04/04 12:01:46;;;;;;;3.08;0.77;;;18.10;52.80;;;;;;6096311;23;20148;-81
2024/04/04 12:04:14;;;;;;;3.15;0.60;;;18.10;52.20;;;;;;6070724;23;20188;-82
2024/04/04 12:06:52;;;;;;;3.75;0.70;;;18.10;52.20;;;;;;6069905;23;20151;-82
2024/04/04 12:09:21;;;;;;;9.73;1.20;;;18.10;52.40;;;;;;6098844;23;20152;-81
2024/04/04 12:11:47;;;;;;;6.05;0.70;;;18.10;52.20;;;;;;6087771;23;20153;-82
2024/04/04 12:14:15;;;;;;;5.57;1.00;;;18.10;52.50;;;;;;6041343;23;20176;-82
2024/04/04 12:16:42;;;;;;;15.70;1.10;;;18.10;52.20;;;;;;6089464;23;20622;-81
2024/04/04 12:19:25;;;;;;;5.60;0.70;;;18.10;52.60;;;;;;6091750;23;20212;-81
2024/04/04 12:22:01;;;;;;;1.73;0.60;;;18.00;52.50;;;;;;6095499;23;20189;-81
2024/04/04 12:24:27;;;;;;;4.35;0.88;;;18.10;52.60;;;;;;6068829;23;20204;-82
2024/04/04 12:26:53;;;;;;;2.28;0.68;;;18.10;51.90;;;;;;6068901;23;20153;-81
2024/04/04 12:29:20;;;;;;;6.38;0.65;;;18.10;52.20;;;;;;6090296;23;20145;-82
2024/04/04 12:31:49;;;;;;;2.47;0.50;;;18.10;52.40;;;;;;6053228;23;20157;-82
2024/04/04 12:34:22;;;;;;;2.63;0.60;;;18.10;51.70;;;;;;6029433;23;20161;-82
2024/04/04 12:36:48;;;;;;;3.80;1.05;;;18.20;51.90;;;;;;6053810;23;20162;-82
2024/04/04 12:39:14;;;;;;;5.38;0.68;;;18.10;52.70;;;;;;6031201;23;20233;-82
2024/04/04 12:41:42;;;;;;;1.98;0.90;;;18.10;52.80;;;;;;6031807;23;20154;-82
2024/04/04 12:44:09;;;;;;;3.35;0.70;;;18.10;52.30;;;;;;6056827;23;20197;-81
2024/04/04 12:46:39;;;;;;;6.30;0.82;;;18.10;51.70;;;;;;6082558;23;20597;-81
2024/04/04 12:49:10;;;;;;;4.68;0.70;;;18.00;52.30;;;;;;6054135;23;20236;-81
2024/04/04 12:51:36;;;;;;;7.82;0.95;;;18.10;52.30;;;;;;6067016;23;20156;-81
2024/04/04 12:54:03;;;;;;;2.28;0.43;;;18.10;52.40;;;;;;6091225;23;20160;-81
2024/04/04 12:56:29;;;;;;;2.88;0.65;;;18.10;52.10;;;;;;6094681;23;20663;-81
2024/04/04 12:58:56;;;;;;;1.85;0.60;;;18.20;52.20;;;;;;6070410;23;20148;-81
2024/04/04 13:01:21;;;;;;;6.78;1.00;;;18.10;52.60;;;;;;6096011;23;20230;-82